Time;durP1;ratioP1;P1;durP2;ratioP2;P2;SDS_P1;SDS_P2;PMS_P1;PMS_P2;Temp;Humidity;BMP_temperature;BMP_pressure;BME280_temperature;BME280_humidity;BME280_pressure;Samples;Min_cycle;Max_cycle;Signal;HPM_P1;HPM_P2
2023/06/17 00:01:54;;;;;;;9.30;6.40;;;;;;;;;;5030542;28;20614;-67
2023/06/17 00:04:22;;;;;;;9.73;5.70;;;;;;;;;;5030318;28;20959;-67
2023/06/17 00:06:50;;;;;;;6.70;6.20;;;;;;;;;;5034773;28;20634;-67
2023/06/17 00:09:18;;;;;;;5.53;5.13;;;;;;;;;;5019291;28;20617;-69
2023/06/17 00:11:47;;;;;;;7.27;6.57;;;;;;;;;;5010592;28;20640;-68
2023/06/17 00:14:17;;;;;;;6.33;5.80;;;;;;;;;;5030408;28;20636;-68
2023/06/17 00:16:45;;;;;;;7.07;6.30;;;;;;;;;;5031286;28;20615;-67
2023/06/17 00:19:15;;;;;;;8.13;6.67;;;;;;;;;;5031334;28;20623;-68
2023/06/17 00:21:43;;;;;;;6.20;5.70;;;;;;;;;;5030891;28;20611;-68
2023/06/17 00:24:12;;;;;;;9.23;5.83;;;;;;;;;;5031632;28;20662;-68
2023/06/17 00:26:40;;;;;;;7.70;6.20;;;;;;;;;;5031017;28;20628;-68
2023/06/17 00:29:09;;;;;;;6.07;5.53;;;;;;;;;;5031115;28;20653;-67
2023/06/17 00:31:38;;;;;;;6.20;5.70;;;;;;;;;;5031313;28;20993;-68
2023/06/17 00:34:06;;;;;;;10.33;6.20;;;;;;;;;;5032376;28;20656;-68
2023/06/17 00:36:35;;;;;;;7.13;6.03;;;;;;;;;;5049974;28;20599;-68
2023/06/17 00:39:03;;;;;;;6.40;5.90;;;;;;;;;;5050480;28;21153;-68
2023/06/17 00:41:31;;;;;;;9.80;6.60;;;;;;;;;;5048238;28;20636;-67
2023/06/17 00:44:00;;;;;;;6.90;6.20;;;;;;;;;;5025900;28;20629;-68
2023/06/17 00:46:30;;;;;;;6.40;5.80;;;;;;;;;;5009426;28;20623;-67
2023/06/17 00:49:00;;;;;;;5.90;5.40;;;;;;;;;;5024190;28;21215;-67
2023/06/17 00:51:28;;;;;;;6.97;6.30;;;;;;;;;;5030837;28;20616;-70
2023/06/17 00:53:56;;;;;;;6.13;5.63;;;;;;;;;;5034349;28;20661;-69
2023/06/17 00:56:26;;;;;;;6.60;6.10;;;;;;;;;;5033779;28;20631;-68
2023/06/17 00:58:55;;;;;;;5.97;5.57;;;;;;;;;;5016253;28;21179;-69
2023/06/17 01:01:24;;;;;;;6.53;5.93;;;;;;;;;;5030098;28;20673;-64
2023/06/17 01:03:54;;;;;;;6.70;6.20;;;;;;;;;;5033237;28;20699;-64
2023/06/17 01:06:27;;;;;;;15.43;6.17;;;;;;;;;;5033198;28;20618;-65
2023/06/17 01:08:58;;;;;;;6.60;5.93;;;;;;;;;;5034143;28;20588;-64
2023/06/17 01:11:27;;;;;;;7.37;6.50;;;;;;;;;;5019689;28;21266;-63
2023/06/17 01:13:56;;;;;;;6.47;5.80;;;;;;;;;;5014101;28;20652;-63
2023/06/17 01:16:26;;;;;;;7.97;6.47;;;;;;;;;;5014750;28;20623;-64
2023/06/17 01:18:57;;;;;;;6.60;6.10;;;;;;;;;;5014266;28;20613;-63
2023/06/17 01:21:28;;;;;;;7.80;6.80;;;;;;;;;;5014332;28;20603;-64
2023/06/17 01:23:59;;;;;;;6.13;5.63;;;;;;;;;;5014000;28;21170;-63
2023/06/17 01:26:31;;;;;;;6.03;5.60;;;;;;;;;;5031140;28;21000;-64
2023/06/17 01:29:01;;;;;;;6.93;6.23;;;;;;;;;;5034058;28;20588;-63
2023/06/17 01:31:30;;;;;;;7.80;7.10;;;;;;;;;;5043176;28;21218;-64
2023/06/17 01:33:59;;;;;;;8.80;5.73;;;;;;;;;;5034630;28;20717;-64
2023/06/17 01:36:29;;;;;;;7.17;6.57;;;;;;;;;;5033860;28;20628;-64
2023/06/17 01:39:03;;;;;;;6.40;5.90;;;;;;;;;;5034243;28;20638;-63
2023/06/17 01:41:37;;;;;;;7.13;6.53;;;;;;;;;;5039355;28;20618;-63
2023/06/17 01:44:06;;;;;;;9.33;6.50;;;;;;;;;;5017995;28;23087;-63
2023/06/17 01:46:35;;;;;;;6.87;6.33;;;;;;;;;;5014649;28;20636;-64
2023/06/17 01:49:04;;;;;;;15.53;5.53;;;;;;;;;;5031785;28;20974;-64
2023/06/17 01:51:32;;;;;;;6.87;6.27;;;;;;;;;;5033847;28;20615;-64
2023/06/17 01:54:02;;;;;;;7.23;6.63;;;;;;;;;;5031872;28;20662;-64
2023/06/17 01:56:30;;;;;;;7.00;6.40;;;;;;;;;;5032809;28;20638;-64
2023/06/17 01:59:00;;;;;;;7.03;6.43;;;;;;;;;;5032023;28;20626;-63
2023/06/17 02:01:28;;;;;;;7.43;6.73;;;;;;;;;;5032941;28;20612;-64
2023/06/17 02:03:57;;;;;;;6.80;6.30;;;;;;;;;;5030005;28;20971;-64
2023/06/17 02:06:25;;;;;;;7.17;6.63;;;;;;;;;;5033431;28;20976;-65
2023/06/17 02:08:54;;;;;;;6.60;6.10;;;;;;;;;;5033109;28;20624;-64
2023/06/17 02:11:22;;;;;;;7.83;7.13;;;;;;;;;;5033428;28;20635;-63
2023/06/17 02:13:50;;;;;;;7.27;6.67;;;;;;;;;;5032772;28;20651;-64
2023/06/17 02:16:20;;;;;;;6.50;5.90;;;;;;;;;;5032449;28;20624;-64
2023/06/17 02:18:52;;;;;;;7.07;6.37;;;;;;;;;;5031736;28;20632;-63
2023/06/17 02:21:20;;;;;;;6.90;6.40;;;;;;;;;;5032303;28;20608;-64
2023/06/17 02:23:49;;;;;;;6.00;5.60;;;;;;;;;;5049549;28;20634;-65
2023/06/17 02:26:17;;;;;;;6.80;6.30;;;;;;;;;;5051354;28;20765;-63
2023/06/17 02:28:45;;;;;;;7.00;6.40;;;;;;;;;;5052738;28;21136;-63
2023/06/17 02:31:14;;;;;;;7.60;6.90;;;;;;;;;;5052987;28;20629;-65
2023/06/17 02:33:43;;;;;;;7.50;6.60;;;;;;;;;;5050938;28;20696;-63
2023/06/17 02:36:14;;;;;;;6.70;6.00;;;;;;;;;;5046012;28;20655;-62
2023/06/17 02:38:42;;;;;;;7.60;5.90;;;;;;;;;;5032062;28;20622;-61
2023/06/17 02:41:11;;;;;;;6.57;5.97;;;;;;;;;;5031490;28;20991;-64
2023/06/17 02:43:39;;;;;;;7.70;6.27;;;;;;;;;;5045690;28;20645;-65
2023/06/17 02:46:08;;;;;;;8.90;5.87;;;;;;;;;;5051956;28;20622;-64
2023/06/17 02:48:36;;;;;;;10.47;6.50;;;;;;;;;;5050517;28;20631;-61
2023/06/17 02:51:07;;;;;;;7.00;6.37;;;;;;;;;;5052003;28;21000;-64
2023/06/17 02:53:35;;;;;;;7.93;6.87;;;;;;;;;;5037132;28;20700;-64
2023/06/17 02:56:04;;;;;;;7.93;6.43;;;;;;;;;;5050606;28;20635;-65
2023/06/17 02:58:34;;;;;;;7.87;6.70;;;;;;;;;;5027486;28;20637;-63
2023/06/17 03:01:05;;;;;;;6.40;5.90;;;;;;;;;;5041432;28;20969;-64
2023/06/17 03:03:34;;;;;;;8.70;6.40;;;;;;;;;;5026951;28;20608;-62
2023/06/17 03:06:04;;;;;;;7.67;6.97;;;;;;;;;;5035389;28;21338;-61
2023/06/17 03:08:35;;;;;;;7.80;7.00;;;;;;;;;;5032123;28;20628;-63
2023/06/17 03:11:04;;;;;;;8.50;6.90;;;;;;;;;;5040399;28;21338;-64
2023/06/17 03:13:34;;;;;;;7.60;6.90;;;;;;;;;;5035864;28;20710;-63
2023/06/17 03:16:02;;;;;;;8.00;7.20;;;;;;;;;;5014206;28;20630;-61
2023/06/17 03:18:34;;;;;;;7.83;7.00;;;;;;;;;;5031025;28;20603;-61
2023/06/17 03:21:02;;;;;;;8.50;6.87;;;;;;;;;;5030968;28;20642;-61
2023/06/17 03:23:30;;;;;;;6.47;5.97;;;;;;;;;;5035570;28;21197;-64
2023/06/17 03:26:00;;;;;;;9.80;6.80;;;;;;;;;;5013755;28;20640;-62
2023/06/17 03:28:29;;;;;;;6.90;6.17;;;;;;;;;;5018620;28;20636;-64
2023/06/17 03:30:57;;;;;;;7.17;6.57;;;;;;;;;;5030527;28;20666;-61
2023/06/17 03:33:26;;;;;;;9.20;6.70;;;;;;;;;;5030451;28;21214;-61
2023/06/17 03:35:54;;;;;;;9.87;7.50;;;;;;;;;;5030303;28;20707;-62
2023/06/17 03:38:22;;;;;;;8.53;6.97;;;;;;;;;;5031563;28;20620;-61
2023/06/17 03:40:51;;;;;;;7.27;6.67;;;;;;;;;;5031548;28;20608;-62
2023/06/17 03:43:21;;;;;;;11.87;7.17;;;;;;;;;;5030212;28;20630;-61
2023/06/17 03:45:50;;;;;;;8.10;7.10;;;;;;;;;;5030741;28;20916;-61
2023/06/17 03:48:19;;;;;;;7.60;7.00;;;;;;;;;;5031099;28;20995;-62
2023/06/17 03:50:48;;;;;;;8.37;6.77;;;;;;;;;;5030506;28;20612;-61
2023/06/17 03:53:16;;;;;;;9.13;7.50;;;;;;;;;;5030163;28;20601;-62
2023/06/17 03:55:46;;;;;;;7.43;6.50;;;;;;;;;;5035255;28;20637;-62
2023/06/17 03:58:14;;;;;;;7.07;6.47;;;;;;;;;;5048009;28;20598;-65
2023/06/17 04:00:47;;;;;;;8.63;7.03;;;;;;;;;;5049770;28;20657;-65
2023/06/17 04:03:15;;;;;;;7.53;6.70;;;;;;;;;;5050158;28;20590;-62
2023/06/17 04:05:44;;;;;;;8.27;7.37;;;;;;;;;;5048505;28;20612;-63
2023/06/17 04:08:12;;;;;;;8.90;8.00;;;;;;;;;;5050649;28;20985;-61
2023/06/17 04:10:41;;;;;;;7.67;6.80;;;;;;;;;;5045106;28;20675;-62
2023/06/17 04:13:09;;;;;;;7.70;7.00;;;;;;;;;;5031514;28;20651;-61
2023/06/17 04:15:38;;;;;;;7.70;6.80;;;;;;;;;;5032572;28;21188;-61
2023/06/17 04:18:07;;;;;;;8.87;7.00;;;;;;;;;;5035605;28;20624;-62
2023/06/17 04:20:35;;;;;;;6.80;6.20;;;;;;;;;;5048007;28;20753;-62
2023/06/17 04:23:04;;;;;;;7.67;6.47;;;;;;;;;;5029572;28;21430;-63
2023/06/17 04:25:36;;;;;;;7.00;6.37;;;;;;;;;;5031433;28;20681;-62
2023/06/17 04:28:06;;;;;;;9.37;7.80;;;;;;;;;;5027449;28;20608;-63
2023/06/17 04:30:37;;;;;;;9.10;6.60;;;;;;;;;;5033057;28;20984;-62
2023/06/17 04:33:11;;;;;;;9.13;7.13;;;;;;;;;;5048849;28;20598;-62
2023/06/17 04:35:41;;;;;;;7.20;6.50;;;;;;;;;;5048464;28;20721;-63
2023/06/17 04:38:10;;;;;;;7.47;6.00;;;;;;;;;;5029724;28;20619;-62
2023/06/17 04:40:39;;;;;;;10.43;6.27;;;;;;;;;;5029863;28;20674;-63
2023/06/17 04:43:10;;;;;;;7.00;6.20;;;;;;;;;;5037011;28;20615;-62
2023/06/17 04:45:39;;;;;;;9.33;6.90;;;;;;;;;;5037390;28;20685;-62
2023/06/17 04:48:09;;;;;;;7.70;6.87;;;;;;;;;;5031242;28;20644;-62
2023/06/17 04:50:37;;;;;;;11.40;6.97;;;;;;;;;;5047574;28;20619;-63
2023/06/17 04:53:05;;;;;;;8.17;7.40;;;;;;;;;;5050469;28;21200;-63
2023/06/17 04:55:36;;;;;;;7.73;6.93;;;;;;;;;;5035000;28;20662;-62
2023/06/17 04:58:06;;;;;;;9.20;7.57;;;;;;;;;;5029203;28;20947;-62
2023/06/17 05:00:49;;;;;;;7.40;6.80;;;;;;;;;;5030442;28;20571;-62
2023/06/17 05:03:22;;;;;;;9.57;7.50;;;;;;;;;;5029584;28;20645;-62
2023/06/17 05:05:53;;;;;;;9.70;6.83;;;;;;;;;;5028488;28;20616;-62
2023/06/17 05:08:22;;;;;;;7.83;6.80;;;;;;;;;;5028350;28;20614;-62
2023/06/17 05:10:52;;;;;;;7.80;7.10;;;;;;;;;;5027207;28;21256;-62
2023/06/17 05:13:20;;;;;;;9.73;6.60;;;;;;;;;;5026721;28;20629;-63
2023/06/17 05:15:48;;;;;;;7.80;7.10;;;;;;;;;;5029054;28;21053;-62
2023/06/17 05:18:17;;;;;;;8.43;7.63;;;;;;;;;;5026222;28;20599;-62
2023/06/17 05:20:47;;;;;;;17.07;8.17;;;;;;;;;;5028729;28;20628;-62
2023/06/17 05:23:15;;;;;;;8.70;7.50;;;;;;;;;;5028761;28;20614;-62
2023/06/17 05:25:43;;;;;;;8.77;7.93;;;;;;;;;;5032569;28;20985;-62
2023/06/17 05:28:13;;;;;;;8.63;7.90;;;;;;;;;;5034033;28;20636;-62
2023/06/17 05:30:43;;;;;;;7.90;7.10;;;;;;;;;;5028485;28;20624;-63
2023/06/17 05:33:14;;;;;;;8.77;7.33;;;;;;;;;;5030753;28;20579;-65
2023/06/17 05:35:42;;;;;;;8.37;7.67;;;;;;;;;;5011599;28;20668;-62
2023/06/17 05:38:12;;;;;;;8.53;7.70;;;;;;;;;;5033407;28;20681;-62
2023/06/17 05:40:40;;;;;;;11.30;7.77;;;;;;;;;;5033883;28;20635;-62
2023/06/17 05:43:08;;;;;;;9.67;7.53;;;;;;;;;;5037650;28;21003;-62
2023/06/17 05:45:36;;;;;;;8.90;7.67;;;;;;;;;;5042487;28;20610;-62
2023/06/17 05:48:05;;;;;;;10.20;8.53;;;;;;;;;;5043914;28;20631;-62
2023/06/17 05:50:34;;;;;;;9.77;8.43;;;;;;;;;;5040300;28;21744;-62
2023/06/17 05:53:03;;;;;;;8.13;7.33;;;;;;;;;;5038677;28;20622;-62
2023/06/17 05:55:33;;;;;;;9.83;8.77;;;;;;;;;;5030199;28;20662;-63
2023/06/17 05:58:01;;;;;;;8.93;8.13;;;;;;;;;;5034296;28;20627;-62
2023/06/17 06:00:30;;;;;;;9.13;8.40;;;;;;;;;;5031685;28;20634;-62
2023/06/17 06:02:58;;;;;;;12.70;7.67;;;;;;;;;;5031709;28;20623;-62
2023/06/17 06:05:27;;;;;;;12.20;8.70;;;;;;;;;;5012047;28;20678;-62
2023/06/17 06:07:55;;;;;;;11.03;9.67;;;;;;;;;;5039769;28;20631;-62
2023/06/17 06:10:26;;;;;;;9.60;8.70;;;;;;;;;;5037347;28;21246;-62
2023/06/17 06:13:00;;;;;;;9.73;8.57;;;;;;;;;;5041295;28;21217;-63
2023/06/17 06:15:30;;;;;;;9.33;8.43;;;;;;;;;;5043782;28;20643;-61
2023/06/17 06:17:58;;;;;;;9.40;7.93;;;;;;;;;;5047792;28;20614;-62
2023/06/17 06:20:27;;;;;;;11.53;7.90;;;;;;;;;;5032726;28;20636;-62
2023/06/17 06:22:56;;;;;;;9.60;8.20;;;;;;;;;;5032183;28;20980;-62
2023/06/17 06:25:25;;;;;;;9.20;8.40;;;;;;;;;;5034969;28;20624;-63
2023/06/17 06:27:53;;;;;;;21.00;8.77;;;;;;;;;;5045886;28;20619;-62
2023/06/17 06:30:27;;;;;;;8.77;7.93;;;;;;;;;;5041596;28;20615;-62
2023/06/17 06:32:57;;;;;;;8.90;8.20;;;;;;;;;;5034322;28;20600;-61
2023/06/17 06:35:26;;;;;;;9.53;7.97;;;;;;;;;;5025952;28;21035;-64
2023/06/17 06:37:55;;;;;;;15.70;8.17;;;;;;;;;;5032253;28;20618;-64
2023/06/17 06:40:24;;;;;;;8.50;7.70;;;;;;;;;;5031394;28;20670;-63
2023/06/17 06:42:53;;;;;;;12.27;9.03;;;;;;;;;;5041144;28;20619;-63
2023/06/17 06:45:28;;;;;;;9.70;8.80;;;;;;;;;;5046387;28;21115;-64
2023/06/17 06:47:56;;;;;;;12.53;8.23;;;;;;;;;;5031207;28;20615;-63
2023/06/17 06:50:25;;;;;;;11.00;10.00;;;;;;;;;;5037906;28;20639;-64
2023/06/17 06:52:54;;;;;;;8.90;8.10;;;;;;;;;;5031285;28;20630;-63
2023/06/17 06:55:23;;;;;;;9.33;8.00;;;;;;;;;;5030457;28;20654;-63
2023/06/17 06:57:55;;;;;;;9.03;8.00;;;;;;;;;;5045065;28;20826;-63
2023/06/17 07:00:25;;;;;;;9.20;8.37;;;;;;;;;;5043613;28;20623;-64
2023/06/17 07:02:56;;;;;;;9.43;8.50;;;;;;;;;;5045845;28;21206;-63
2023/06/17 07:05:25;;;;;;;13.13;8.67;;;;;;;;;;5030494;28;20614;-63
2023/06/17 07:07:59;;;;;;;8.43;7.63;;;;;;;;;;5031089;28;20594;-63
2023/06/17 07:10:27;;;;;;;11.00;8.07;;;;;;;;;;5017227;28;20696;-63
2023/06/17 07:12:56;;;;;;;7.80;7.20;;;;;;;;;;5037331;28;21196;-67
2023/06/17 07:15:25;;;;;;;8.30;7.60;;;;;;;;;;5030654;28;20636;-65
2023/06/17 07:17:57;;;;;;;8.10;7.40;;;;;;;;;;5033803;28;20602;-66
2023/06/17 07:20:26;;;;;;;8.23;7.50;;;;;;;;;;5031184;28;20600;-65
2023/06/17 07:22:56;;;;;;;8.87;7.93;;;;;;;;;;5031680;28;20616;-65
2023/06/17 07:25:25;;;;;;;10.17;9.23;;;;;;;;;;5030645;28;20631;-66
2023/06/17 07:27:56;;;;;;;8.90;8.30;;;;;;;;;;5036103;28;20627;-65
2023/06/17 07:30:25;;;;;;;12.63;7.97;;;;;;;;;;5048242;28;20672;-65
2023/06/17 07:32:53;;;;;;;7.20;6.70;;;;;;;;;;5031074;28;20627;-64
2023/06/17 07:35:26;;;;;;;9.43;8.57;;;;;;;;;;5019049;28;20655;-63
2023/06/17 07:37:54;;;;;;;7.77;7.07;;;;;;;;;;5016509;28;20761;-64
2023/06/17 07:40:22;;;;;;;7.73;7.00;;;;;;;;;;5035737;28;20626;-64
2023/06/17 07:42:53;;;;;;;8.87;6.67;;;;;;;;;;5032372;28;20674;-64
2023/06/17 07:45:21;;;;;;;7.97;7.37;;;;;;;;;;5041330;28;20965;-64
2023/06/17 07:47:50;;;;;;;7.60;7.00;;;;;;;;;;5033506;28;20624;-64
2023/06/17 07:50:18;;;;;;;10.33;7.70;;;;;;;;;;5031375;28;20631;-63
2023/06/17 07:52:50;;;;;;;11.67;8.00;;;;;;;;;;5027180;28;20632;-65
2023/06/17 07:55:18;;;;;;;10.50;7.90;;;;;;;;;;5031696;28;20654;-65
2023/06/17 07:57:47;;;;;;;13.50;8.50;;;;;;;;;;5032547;28;20655;-64
2023/06/17 08:00:15;;;;;;;7.57;6.97;;;;;;;;;;5049531;28;20621;-64
2023/06/17 08:02:47;;;;;;;11.43;6.90;;;;;;;;;;5015627;28;20604;-64
2023/06/17 08:05:16;;;;;;;8.40;7.50;;;;;;;;;;5041787;28;21192;-65
2023/06/17 08:07:44;;;;;;;8.10;7.33;;;;;;;;;;5049602;28;20615;-66
2023/06/17 08:10:13;;;;;;;7.63;6.93;;;;;;;;;;5050664;28;20659;-64
2023/06/17 08:12:42;;;;;;;15.90;9.10;;;;;;;;;;5016130;28;20624;-63
2023/06/17 08:15:12;;;;;;;9.00;7.63;;;;;;;;;;5029532;28;20607;-64
2023/06/17 08:17:42;;;;;;;8.53;7.00;;;;;;;;;;5043074;28;20655;-65
2023/06/17 08:20:11;;;;;;;9.63;6.90;;;;;;;;;;5041728;28;20628;-64
2023/06/17 08:22:59;;;;;;;8.27;7.57;;;;;;;;;;5035328;28;20632;-64
2023/06/17 08:25:29;;;;;;;7.70;7.10;;;;;;;;;;5030699;28;21178;-64
2023/06/17 08:27:57;;;;;;;7.80;7.00;;;;;;;;;;5033558;28;21192;-64
2023/06/17 08:30:26;;;;;;;8.37;7.10;;;;;;;;;;5049506;28;20615;-64
2023/06/17 08:32:54;;;;;;;7.67;7.00;;;;;;;;;;5029332;28;21165;-63
2023/06/17 08:35:22;;;;;;;8.70;7.97;;;;;;;;;;5030027;28;20771;-63
2023/06/17 08:37:50;;;;;;;8.53;7.83;;;;;;;;;;5036684;28;20663;-63
2023/06/17 08:40:21;;;;;;;7.77;7.07;;;;;;;;;;5029304;28;20619;-64
2023/06/17 08:42:53;;;;;;;7.83;7.13;;;;;;;;;;5039699;28;20615;-64
2023/06/17 08:45:22;;;;;;;7.83;7.23;;;;;;;;;;5016270;28;20607;-63
2023/06/17 08:47:50;;;;;;;6.93;6.53;;;;;;;;;;5029167;28;20620;-64
2023/06/17 08:50:19;;;;;;;10.33;6.40;;;;;;;;;;5029269;28;20615;-67
2023/06/17 08:52:49;;;;;;;7.97;6.70;;;;;;;;;;5030576;28;20616;-64
2023/06/17 08:55:18;;;;;;;14.23;6.40;;;;;;;;;;5013856;28;20628;-65
2023/06/17 08:57:47;;;;;;;7.53;6.30;;;;;;;;;;5030342;28;20651;-65
2023/06/17 09:00:17;;;;;;;7.80;7.20;;;;;;;;;;5031136;28;20702;-64
2023/06/17 09:02:46;;;;;;;8.37;7.07;;;;;;;;;;5028387;28;21079;-65
2023/06/17 09:05:15;;;;;;;7.30;6.80;;;;;;;;;;5022050;28;20652;-64
2023/06/17 09:07:43;;;;;;;7.57;6.87;;;;;;;;;;5028391;28;20936;-64
2023/06/17 09:10:16;;;;;;;11.53;6.87;;;;;;;;;;5026761;28;20662;-64
2023/06/17 09:12:44;;;;;;;7.50;6.90;;;;;;;;;;5030218;28;20596;-67
2023/06/17 09:15:16;;;;;;;8.03;7.00;;;;;;;;;;5034957;28;21207;-62
2023/06/17 09:17:47;;;;;;;6.87;6.13;;;;;;;;;;5033501;28;20697;-63
2023/06/17 09:20:16;;;;;;;7.67;6.73;;;;;;;;;;5034862;28;20880;-62
2023/06/17 09:22:45;;;;;;;7.97;7.20;;;;;;;;;;5033171;28;20622;-65
2023/06/17 09:25:14;;;;;;;7.20;6.60;;;;;;;;;;5034832;28;20623;-62
2023/06/17 09:27:46;;;;;;;7.90;7.20;;;;;;;;;;5033976;28;20618;-62
2023/06/17 09:30:14;;;;;;;7.40;6.50;;;;;;;;;;5034370;28;20645;-66
2023/06/17 09:32:44;;;;;;;8.40;7.60;;;;;;;;;;5033056;28;20626;-63
2023/06/17 09:35:15;;;;;;;8.13;7.03;;;;;;;;;;5033938;28;21016;-64
2023/06/17 09:37:45;;;;;;;10.70;7.67;;;;;;;;;;5033550;28;20639;-64
2023/06/17 09:40:13;;;;;;;8.40;7.60;;;;;;;;;;5034263;28;20612;-63
2023/06/17 09:42:44;;;;;;;9.90;7.80;;;;;;;;;;5033672;28;20985;-64
2023/06/17 09:45:13;;;;;;;8.60;7.30;;;;;;;;;;5033193;28;20591;-63
2023/06/17 09:47:41;;;;;;;8.67;7.37;;;;;;;;;;5033553;28;20620;-64
2023/06/17 09:50:10;;;;;;;7.33;6.83;;;;;;;;;;5033798;28;20964;-63
2023/06/17 09:52:40;;;;;;;7.60;6.90;;;;;;;;;;5032880;28;20631;-63
2023/06/17 09:55:09;;;;;;;6.87;6.37;;;;;;;;;;5033487;28;20612;-63
2023/06/17 09:57:39;;;;;;;8.60;6.57;;;;;;;;;;5032808;28;20709;-64
2023/06/17 10:00:11;;;;;;;9.87;6.53;;;;;;;;;;5033221;28;20613;-63
2023/06/17 10:02:40;;;;;;;6.50;6.00;;;;;;;;;;5032325;28;20594;-64
2023/06/17 10:05:10;;;;;;;7.13;6.53;;;;;;;;;;5032334;28;20623;-63
2023/06/17 10:07:41;;;;;;;7.07;6.67;;;;;;;;;;5033366;28;20602;-63
2023/06/17 10:10:11;;;;;;;8.77;8.13;;;;;;;;;;5028940;28;20694;-63
2023/06/17 10:12:40;;;;;;;13.03;8.17;;;;;;;;;;5013642;28;21022;-63
2023/06/17 10:15:09;;;;;;;8.50;7.67;;;;;;;;;;5013080;28;20611;-63
2023/06/17 10:17:38;;;;;;;7.70;7.10;;;;;;;;;;5013389;28;20657;-62
2023/06/17 10:20:08;;;;;;;7.43;6.73;;;;;;;;;;5012934;28;20648;-64
2023/06/17 10:22:38;;;;;;;7.07;6.57;;;;;;;;;;5013560;28;20632;-63
2023/06/17 10:25:10;;;;;;;8.37;7.53;;;;;;;;;;5012306;28;20617;-63
2023/06/17 10:27:38;;;;;;;7.63;7.03;;;;;;;;;;5013010;28;20580;-63
2023/06/17 10:30:25;;;;;;;7.50;6.80;;;;;;;;;;5012421;28;20611;-63
2023/06/17 10:32:54;;;;;;;13.90;6.77;;;;;;;;;;5013048;28;20595;-63
2023/06/17 10:35:22;;;;;;;6.83;6.33;;;;;;;;;;5012098;28;21066;-63
2023/06/17 10:37:51;;;;;;;6.50;5.93;;;;;;;;;;5013152;28;20656;-63
2023/06/17 10:40:24;;;;;;;7.40;6.80;;;;;;;;;;5012635;28;20667;-64
2023/06/17 10:42:57;;;;;;;7.37;6.80;;;;;;;;;;5013182;28;20585;-63
2023/06/17 10:45:26;;;;;;;6.67;6.03;;;;;;;;;;5012411;28;20585;-63
2023/06/17 10:48:14;;;;;;;8.60;6.57;;;;;;;;;;5013093;28;20619;-64
2023/06/17 10:50:43;;;;;;;7.50;6.80;;;;;;;;;;5012585;28;20945;-63
2023/06/17 10:53:16;;;;;;;7.40;6.90;;;;;;;;;;5013140;28;20616;-63
2023/06/17 10:55:46;;;;;;;6.77;6.37;;;;;;;;;;5011008;28;20918;-66
2023/06/17 10:58:14;;;;;;;7.50;7.00;;;;;;;;;;5011565;28;20653;-66
2023/06/17 11:00:42;;;;;;;6.90;6.40;;;;;;;;;;5010898;28;20615;-63
2023/06/17 11:03:10;;;;;;;7.43;6.77;;;;;;;;;;5011677;28;20982;-63
2023/06/17 11:05:39;;;;;;;7.20;6.50;;;;;;;;;;5011404;28;21003;-64
2023/06/17 11:08:07;;;;;;;8.50;6.93;;;;;;;;;;5012695;28;20644;-64
2023/06/17 11:10:36;;;;;;;7.27;6.57;;;;;;;;;;5012201;28;20645;-64
2023/06/17 11:13:05;;;;;;;8.57;7.70;;;;;;;;;;5032428;28;20994;-64
2023/06/17 11:15:34;;;;;;;7.30;6.80;;;;;;;;;;5031542;28;20622;-63
2023/06/17 11:18:02;;;;;;;8.00;7.03;;;;;;;;;;5031896;28;20659;-64
2023/06/17 11:20:32;;;;;;;7.00;6.40;;;;;;;;;;5031355;28;20658;-64
2023/06/17 11:23:00;;;;;;;8.53;7.83;;;;;;;;;;5032111;28;20735;-64
2023/06/17 11:25:30;;;;;;;9.30;7.17;;;;;;;;;;5031481;28;20615;-64
2023/06/17 11:27:58;;;;;;;7.80;7.13;;;;;;;;;;5031341;28;21187;-64
2023/06/17 11:30:28;;;;;;;7.67;6.93;;;;;;;;;;5029411;28;20622;-64
2023/06/17 11:32:57;;;;;;;9.20;8.17;;;;;;;;;;5031266;28;20588;-64
2023/06/17 11:35:26;;;;;;;8.77;7.67;;;;;;;;;;5030980;28;20638;-64
2023/06/17 11:37:54;;;;;;;7.70;7.20;;;;;;;;;;5028696;28;20664;-63
2023/06/17 11:40:24;;;;;;;7.13;6.73;;;;;;;;;;5029831;28;20619;-64
2023/06/17 11:42:53;;;;;;;7.33;6.83;;;;;;;;;;5050580;28;20622;-64
2023/06/17 11:45:21;;;;;;;8.53;7.33;;;;;;;;;;5033247;28;20619;-64
2023/06/17 11:47:51;;;;;;;7.97;7.30;;;;;;;;;;5030931;28;20612;-64
2023/06/17 11:50:19;;;;;;;8.43;7.80;;;;;;;;;;5030215;28;20623;-64
2023/06/17 11:52:54;;;;;;;6.90;6.40;;;;;;;;;;5030402;28;20622;-63
2023/06/17 11:55:30;;;;;;;7.23;6.80;;;;;;;;;;5030269;28;20580;-63
2023/06/17 11:57:58;;;;;;;7.83;7.13;;;;;;;;;;5010661;28;20632;-64
2023/06/17 12:00:27;;;;;;;7.03;6.50;;;;;;;;;;5008701;28;21175;-64
2023/06/17 12:02:57;;;;;;;8.17;7.50;;;;;;;;;;5009706;28;20624;-64
2023/06/17 12:05:29;;;;;;;9.47;8.10;;;;;;;;;;5010713;28;20589;-64
2023/06/17 12:08:00;;;;;;;7.00;6.60;;;;;;;;;;5010777;28;20670;-64
2023/06/17 12:10:28;;;;;;;8.03;7.43;;;;;;;;;;5010812;28;20641;-63
2023/06/17 12:12:57;;;;;;;7.70;7.27;;;;;;;;;;5030300;28;20616;-64
2023/06/17 12:15:29;;;;;;;7.80;7.30;;;;;;;;;;5023430;28;20730;-62
2023/06/17 12:18:09;;;;;;;10.33;7.47;;;;;;;;;;5025647;28;20658;-63
2023/06/17 12:20:38;;;;;;;7.80;7.23;;;;;;;;;;5028249;28;20621;-62
2023/06/17 12:23:06;;;;;;;7.43;6.77;;;;;;;;;;5048376;28;20692;-62
2023/06/17 12:25:34;;;;;;;7.50;7.10;;;;;;;;;;5033391;28;20628;-62
2023/06/17 12:28:03;;;;;;;11.10;6.20;;;;;;;;;;5030334;28;20976;-62
2023/06/17 12:30:33;;;;;;;7.80;7.30;;;;;;;;;;5031483;28;20630;-62
2023/06/17 12:33:03;;;;;;;7.33;6.93;;;;;;;;;;5038580;28;20981;-63
2023/06/17 12:35:31;;;;;;;7.00;6.50;;;;;;;;;;5049780;28;21091;-63
2023/06/17 12:37:59;;;;;;;7.83;7.10;;;;;;;;;;5049846;28;20619;-63
2023/06/17 12:40:28;;;;;;;7.27;6.87;;;;;;;;;;5032603;28;20685;-63
2023/06/17 12:42:56;;;;;;;6.93;6.43;;;;;;;;;;5034882;28;20628;-64
2023/06/17 12:45:26;;;;;;;7.80;7.10;;;;;;;;;;5024942;28;20630;-63
2023/06/17 12:47:55;;;;;;;8.30;7.53;;;;;;;;;;5031916;28;20596;-63
2023/06/17 12:50:26;;;;;;;8.37;7.80;;;;;;;;;;5034684;28;20615;-65
2023/06/17 12:52:55;;;;;;;8.00;7.30;;;;;;;;;;5035528;28;20962;-63
2023/06/17 12:55:23;;;;;;;7.60;7.00;;;;;;;;;;5043566;28;20984;-63
2023/06/17 12:57:51;;;;;;;7.73;6.80;;;;;;;;;;5033841;28;20636;-63
2023/06/17 13:00:21;;;;;;;6.93;6.53;;;;;;;;;;5034551;28;20951;-63
2023/06/17 13:02:49;;;;;;;7.70;7.10;;;;;;;;;;5035782;28;20627;-64
2023/06/17 13:05:18;;;;;;;7.57;6.97;;;;;;;;;;5036105;28;20681;-63
2023/06/17 13:07:47;;;;;;;7.50;7.00;;;;;;;;;;5032753;28;20632;-65
2023/06/17 13:10:16;;;;;;;6.83;6.33;;;;;;;;;;5029930;28;21236;-63
2023/06/17 13:12:44;;;;;;;7.40;6.90;;;;;;;;;;5018734;28;21201;-65
2023/06/17 13:15:12;;;;;;;7.87;7.17;;;;;;;;;;5036774;28;20643;-63
2023/06/17 13:17:41;;;;;;;7.47;7.00;;;;;;;;;;5037926;28;21006;-63
2023/06/17 13:20:09;;;;;;;8.63;6.90;;;;;;;;;;5025667;28;20667;-63
2023/06/17 13:22:38;;;;;;;10.93;7.47;;;;;;;;;;5032989;28;20637;-63
2023/06/17 13:25:08;;;;;;;8.10;7.40;;;;;;;;;;5033881;28;20627;-63
2023/06/17 13:27:36;;;;;;;7.87;7.23;;;;;;;;;;5031510;28;20626;-63
2023/06/17 13:30:05;;;;;;;8.50;7.80;;;;;;;;;;5026763;28;20633;-63
2023/06/17 13:32:33;;;;;;;7.23;6.70;;;;;;;;;;5033253;28;20624;-63
2023/06/17 13:35:03;;;;;;;7.00;6.60;;;;;;;;;;5031173;28;20652;-64
2023/06/17 13:37:31;;;;;;;8.13;7.37;;;;;;;;;;5029112;28;20646;-63
2023/06/17 13:39:59;;;;;;;7.77;7.27;;;;;;;;;;5028936;28;20665;-63
2023/06/17 13:42:31;;;;;;;7.33;6.73;;;;;;;;;;5032940;28;20674;-63
2023/06/17 13:44:59;;;;;;;7.77;7.00;;;;;;;;;;5032258;28;20611;-64
2023/06/17 13:47:27;;;;;;;7.23;6.73;;;;;;;;;;5032761;28;20615;-63
2023/06/17 13:49:55;;;;;;;7.67;6.87;;;;;;;;;;5032016;28;20616;-63
2023/06/17 13:52:23;;;;;;;7.43;6.83;;;;;;;;;;5033055;28;20979;-63
2023/06/17 13:54:52;;;;;;;7.30;6.90;;;;;;;;;;5033338;28;20623;-64
2023/06/17 13:57:20;;;;;;;7.97;7.17;;;;;;;;;;5035166;28;20640;-63
2023/06/17 13:59:49;;;;;;;7.80;7.30;;;;;;;;;;5031637;28;20682;-63
2023/06/17 14:02:18;;;;;;;7.83;7.23;;;;;;;;;;5035219;28;20910;-64
2023/06/17 14:04:46;;;;;;;7.87;7.27;;;;;;;;;;5031305;28;20635;-64
2023/06/17 14:07:14;;;;;;;8.47;7.70;;;;;;;;;;5032776;28;20627;-65
2023/06/17 14:09:42;;;;;;;11.80;7.10;;;;;;;;;;5031313;28;21212;-64
2023/06/17 14:12:11;;;;;;;7.50;6.83;;;;;;;;;;5031837;28;20620;-64
2023/06/17 14:14:39;;;;;;;8.13;7.53;;;;;;;;;;5031312;28;21195;-64
2023/06/17 14:17:09;;;;;;;7.50;6.80;;;;;;;;;;5028039;28;20616;-63
2023/06/17 14:19:37;;;;;;;7.50;7.10;;;;;;;;;;5031496;28;20693;-64
2023/06/17 14:22:08;;;;;;;7.50;7.00;;;;;;;;;;5043458;28;20624;-64
2023/06/17 14:24:37;;;;;;;8.33;7.80;;;;;;;;;;5032076;28;21191;-63
2023/06/17 14:27:16;;;;;;;7.87;7.20;;;;;;;;;;5032069;28;20612;-63
2023/06/17 14:29:44;;;;;;;7.33;6.90;;;;;;;;;;5032005;28;20592;-64
2023/06/17 14:32:16;;;;;;;7.50;6.90;;;;;;;;;;5033040;28;20631;-64
2023/06/17 14:34:44;;;;;;;8.10;7.40;;;;;;;;;;5032147;28;20659;-65
2023/06/17 14:37:12;;;;;;;7.30;6.80;;;;;;;;;;5032833;28;20611;-64
2023/06/17 14:39:41;;;;;;;6.70;6.30;;;;;;;;;;5015659;28;20671;-64
2023/06/17 14:42:09;;;;;;;6.97;6.57;;;;;;;;;;5039362;28;20619;-64
2023/06/17 14:44:37;;;;;;;7.37;6.87;;;;;;;;;;5034997;28;20631;-65
2023/06/17 14:47:06;;;;;;;7.57;6.97;;;;;;;;;;5028546;28;20614;-64
2023/06/17 14:49:35;;;;;;;7.27;6.77;;;;;;;;;;5031991;28;20625;-64
2023/06/17 14:52:04;;;;;;;6.77;6.27;;;;;;;;;;5032139;28;21039;-66
2023/06/17 14:54:33;;;;;;;7.60;7.10;;;;;;;;;;5031137;28;20621;-63